createdAt,value
2024-03-12T00:00:51.457Z,94320.00
2024-03-12T00:01:51.272Z,94316.00
2024-03-12T00:02:51.282Z,94315.00
2024-03-12T00:03:51.390Z,94313.00
2024-03-12T00:04:51.382Z,94310.00
2024-03-12T00:05:51.308Z,94310.00
2024-03-12T00:06:51.404Z,94309.00
2024-03-12T00:07:51.545Z,94310.00
2024-03-12T00:08:51.393Z,94313.00
2024-03-12T00:09:51.391Z,94315.00
2024-03-12T00:10:51.416Z,94316.00
2024-03-12T00:11:51.436Z,94319.00
2024-03-12T00:12:51.542Z,94322.00
2024-03-12T00:13:51.435Z,94322.00
2024-03-12T00:14:51.486Z,94324.00
2024-03-12T00:15:51.611Z,94323.00
2024-03-12T00:16:51.498Z,94321.00
2024-03-12T00:17:51.590Z,94321.00
2024-03-12T00:18:51.592Z,94323.00
2024-03-12T00:19:51.585Z,94323.00
2024-03-12T00:20:51.646Z,94325.00
2024-03-12T00:21:51.577Z,94328.00
2024-03-12T00:22:51.613Z,94332.00
2024-03-12T00:23:51.648Z,94334.00
2024-03-12T00:24:51.659Z,94335.00
2024-03-12T00:25:51.704Z,94334.00
2024-03-12T00:26:51.709Z,94339.00
2024-03-12T00:27:51.869Z,94339.00
2024-03-12T00:28:51.751Z,94341.00
2024-03-12T00:29:51.780Z,94343.00
2024-03-12T00:30:51.888Z,94346.00
2024-03-12T00:31:51.798Z,94346.00
2024-03-12T00:32:51.815Z,94347.00
2024-03-12T00:33:51.849Z,94345.00
2024-03-12T00:34:51.857Z,94344.00
2024-03-12T00:35:51.831Z,94342.00
2024-03-12T00:36:51.889Z,94345.00
2024-03-12T00:37:51.893Z,94345.00
2024-03-12T00:38:51.957Z,94346.00
2024-03-12T00:39:52.008Z,94349.00
2024-03-12T00:40:51.968Z,94354.00
2024-03-12T00:41:52.047Z,94358.00
2024-03-12T00:42:52.082Z,94359.00
2024-03-12T00:43:52.033Z,94361.00
2024-03-12T00:44:52.050Z,94364.00
2024-03-12T00:45:52.178Z,94368.00
2024-03-12T00:46:52.057Z,94368.00
2024-03-12T00:47:52.215Z,94370.00
2024-03-12T00:48:52.185Z,94367.00
2024-03-12T00:49:52.140Z,94368.00
2024-03-12T00:50:52.172Z,94371.00
2024-03-12T00:51:52.202Z,94373.00
2024-03-12T00:52:52.188Z,94377.00
2024-03-12T00:53:52.219Z,94377.00
2024-03-12T00:54:52.273Z,94377.00
2024-03-12T00:55:52.304Z,94377.00
2024-03-12T00:56:52.285Z,94379.00
2024-03-12T00:57:52.344Z,94380.00
2024-03-12T00:58:52.300Z,94381.00
2024-03-12T00:59:52.369Z,94380.00
2024-03-12T01:00:52.498Z,94381.00
2024-03-12T01:01:52.414Z,94382.00
2024-03-12T01:02:52.424Z,94382.00
2024-03-12T01:03:52.461Z,94381.00
2024-03-12T01:04:52.458Z,94381.00
2024-03-12T01:05:52.569Z,94379.00
2024-03-12T01:06:52.560Z,94377.00
2024-03-12T01:07:52.578Z,94374.00
2024-03-12T01:08:52.591Z,94373.00
2024-03-12T01:09:52.635Z,94372.00
2024-03-12T01:10:52.742Z,94374.00
2024-03-12T01:11:52.658Z,94373.00
2024-03-12T01:12:52.771Z,94376.00
2024-03-12T01:13:52.708Z,94376.00
2024-03-12T01:14:52.712Z,94378.00
2024-03-12T01:15:52.767Z,94377.00
2024-03-12T01:16:52.857Z,94379.00
2024-03-12T01:17:52.887Z,94382.00
2024-03-12T01:18:52.914Z,94379.00
2024-03-12T01:19:52.834Z,94378.00
2024-03-12T01:20:52.909Z,94378.00
2024-03-12T01:21:52.964Z,94378.00
2024-03-12T01:22:52.986Z,94380.00
2024-03-12T01:23:52.984Z,94380.00
2024-03-12T01:24:53.117Z,94381.00
2024-03-12T01:25:53.043Z,94381.00
2024-03-12T01:26:53.093Z,94381.00
2024-03-12T01:27:53.216Z,94384.00
2024-03-12T01:28:53.120Z,94384.00
2024-03-12T01:29:53.146Z,94384.00
2024-03-12T01:30:53.263Z,94388.00
2024-03-12T01:31:53.254Z,94388.00
2024-03-12T01:32:53.311Z,94389.00
2024-03-12T01:33:53.299Z,94390.00
2024-03-12T01:34:53.285Z,94392.00
2024-03-12T01:35:53.394Z,94390.00
2024-03-12T01:36:53.419Z,94387.00
2024-03-12T01:37:53.525Z,94387.00
2024-03-12T01:38:53.449Z,94384.00
2024-03-12T01:39:53.465Z,94384.00
2024-03-12T01:40:53.531Z,94381.00
2024-03-12T01:41:53.509Z,94385.00
2024-03-12T01:42:53.575Z,94384.00
2024-03-12T01:43:53.579Z,94382.00
2024-03-12T01:44:53.596Z,94385.00
2024-03-12T01:45:53.644Z,94391.00
2024-03-12T01:46:53.606Z,94394.00
2024-03-12T01:47:53.720Z,94398.00
2024-03-12T01:48:53.745Z,94401.00
2024-03-12T01:49:53.704Z,94404.00
2024-03-12T01:50:53.725Z,94403.00
2024-03-12T01:51:53.792Z,94402.00
2024-03-12T01:52:53.844Z,94403.00
2024-03-12T01:53:54.242Z,94405.00
2024-03-12T01:54:53.900Z,94411.00
2024-03-12T01:55:53.875Z,94414.00
2024-03-12T01:56:53.858Z,94416.00
2024-03-12T01:57:53.994Z,94419.00
2024-03-12T01:58:53.992Z,94417.00
2024-03-12T01:59:53.984Z,94414.00
2024-03-12T02:00:54.252Z,94413.00
2024-03-12T02:01:54.136Z,94410.00
2024-03-12T02:02:54.206Z,94410.00
2024-03-12T02:03:54.141Z,94414.00
2024-03-12T02:04:54.179Z,94420.00
2024-03-12T02:05:54.241Z,94424.00
2024-03-12T02:06:54.250Z,94424.00
2024-03-12T02:07:54.261Z,94425.00
2024-03-12T02:08:54.325Z,94425.00
2024-03-12T02:09:54.353Z,94421.00
2024-03-12T02:10:54.431Z,94423.00
2024-03-12T02:11:54.437Z,94421.00
2024-03-12T02:12:54.496Z,94421.00
2024-03-12T02:13:54.435Z,94423.00
2024-03-12T02:14:54.484Z,94424.00
2024-03-12T02:15:54.526Z,94428.00
2024-03-12T02:16:54.586Z,94427.00
2024-03-12T02:17:54.806Z,94427.00
2024-03-12T02:18:54.652Z,94431.00
2024-03-12T02:19:54.718Z,94434.00
2024-03-12T02:20:54.712Z,94435.00
2024-03-12T02:21:54.841Z,94434.00
2024-03-12T02:22:54.783Z,94433.00
2024-03-12T02:23:54.830Z,94430.00
2024-03-12T02:24:54.900Z,94427.00
2024-03-12T02:25:54.885Z,94427.00
2024-03-12T02:26:54.958Z,94427.00
2024-03-12T02:27:55.040Z,94427.00
2024-03-12T02:28:55.002Z,94427.00
2024-03-12T02:29:55.029Z,94429.00
2024-03-12T02:30:55.182Z,94427.00
2024-03-12T02:31:55.194Z,94427.00
2024-03-12T02:32:55.143Z,94425.00
2024-03-12T02:33:55.232Z,94423.00
2024-03-12T02:34:55.167Z,94423.00
2024-03-12T02:35:55.264Z,94424.00
2024-03-12T02:36:55.308Z,94425.00
2024-03-12T02:37:55.354Z,94425.00
2024-03-12T02:38:55.381Z,94430.00
2024-03-12T02:39:55.448Z,94430.00
2024-03-12T02:40:55.453Z,94433.00
2024-03-12T02:41:55.469Z,94435.00
2024-03-12T02:42:55.556Z,94439.00
2024-03-12T02:43:55.580Z,94440.00
2024-03-12T02:44:55.584Z,94442.00
2024-03-12T02:45:55.640Z,94444.00
2024-03-12T02:46:55.607Z,94449.00
2024-03-12T02:47:55.686Z,94451.00
2024-03-12T02:48:55.760Z,94451.00
2024-03-12T02:49:55.760Z,94452.00
2024-03-12T02:50:55.860Z,94451.00
2024-03-12T02:51:55.915Z,94450.00
2024-03-12T02:52:55.884Z,94450.00
2024-03-12T02:53:55.896Z,94450.00
2024-03-12T02:54:55.981Z,94449.00
2024-03-12T02:55:55.981Z,94447.00
2024-03-12T02:56:56.032Z,94448.00
2024-03-12T02:57:56.040Z,94447.00
2024-03-12T02:58:56.097Z,94448.00
2024-03-12T02:59:56.104Z,94449.00
2024-03-12T03:00:56.207Z,94452.00
2024-03-12T03:01:56.234Z,94455.00
2024-03-12T03:02:56.168Z,94452.00
2024-03-12T03:03:56.274Z,94451.00
2024-03-12T03:04:56.300Z,94454.00
2024-03-12T03:05:56.355Z,94454.00
2024-03-12T03:06:56.345Z,94456.00
2024-03-12T03:07:56.392Z,94455.00
2024-03-12T03:08:56.429Z,94456.00
2024-03-12T03:09:56.503Z,94456.00
2024-03-12T03:10:56.573Z,94458.00
2024-03-12T03:11:56.532Z,94459.00
2024-03-12T03:12:56.549Z,94456.00
2024-03-12T03:13:56.592Z,94457.00
2024-03-12T03:14:56.622Z,94456.00
2024-03-12T03:15:56.706Z,94457.00
2024-03-12T03:16:56.680Z,94456.00
2024-03-12T03:18:56.770Z,94459.00
2024-03-12T03:19:56.801Z,94459.00
2024-03-12T03:20:56.809Z,94461.00
2024-03-12T03:21:56.867Z,94461.00
2024-03-12T03:22:56.928Z,94461.00
2024-03-12T03:23:56.925Z,94461.00
2024-03-12T03:24:57.090Z,94462.00
2024-03-12T03:25:57.006Z,94463.00
2024-03-12T03:26:57.050Z,94463.00
2024-03-12T03:27:57.138Z,94463.00
2024-03-12T03:28:57.113Z,94460.00
2024-03-12T03:29:57.156Z,94463.00
2024-03-12T03:30:57.200Z,94463.00
2024-03-12T03:31:57.190Z,94468.00
2024-03-12T03:32:57.272Z,94469.00
2024-03-12T03:33:57.342Z,94471.00
2024-03-12T03:34:57.306Z,94468.00
2024-03-12T03:35:57.362Z,94464.00
2024-03-12T03:36:57.481Z,94464.00
2024-03-12T03:37:57.412Z,94467.00
2024-03-12T03:38:57.500Z,94470.00
2024-03-12T03:39:57.548Z,94470.00
2024-03-12T03:40:57.563Z,94472.00
2024-03-12T03:41:57.724Z,94472.00
2024-03-12T03:42:58.028Z,94472.00
2024-03-12T03:43:57.647Z,94466.00
2024-03-12T03:44:57.741Z,94464.00
2024-03-12T03:45:57.758Z,94464.00
2024-03-12T03:46:57.800Z,94464.00
2024-03-12T03:47:57.893Z,94466.00
2024-03-12T03:48:57.873Z,94467.00
2024-03-12T03:49:57.932Z,94470.00
2024-03-12T03:50:57.908Z,94469.00
2024-03-12T03:51:57.983Z,94468.00
2024-03-12T03:52:58.057Z,94466.00
2024-03-12T03:53:58.136Z,94463.00
2024-03-12T03:54:58.197Z,94461.00
2024-03-12T03:55:58.129Z,94459.00
2024-03-12T03:56:58.166Z,94460.00
2024-03-12T03:57:58.262Z,94460.00
2024-03-12T03:58:58.240Z,94462.00
2024-03-12T03:59:58.351Z,94464.00
2024-03-12T04:00:58.355Z,94464.00
2024-03-12T04:01:58.378Z,94467.00
2024-03-12T04:02:58.387Z,94469.00
2024-03-12T04:03:58.449Z,94470.00
2024-03-12T04:04:58.443Z,94473.00
2024-03-12T04:05:58.496Z,94473.00
2024-03-12T04:06:58.521Z,94473.00
2024-03-12T04:07:58.589Z,94472.00
2024-03-12T04:08:58.568Z,94471.00
2024-03-12T04:09:58.703Z,94474.00
2024-03-12T04:10:58.707Z,94475.00
2024-03-12T04:11:58.751Z,94475.00
2024-03-12T04:12:58.835Z,94476.00
2024-03-12T04:13:58.792Z,94477.00
2024-03-12T04:14:58.831Z,94475.00
2024-03-12T04:15:58.897Z,94478.00
2024-03-12T04:16:58.919Z,94481.00
2024-03-12T04:17:59.079Z,94483.00
2024-03-12T04:18:59.074Z,94486.00
2024-03-12T04:19:59.071Z,94486.00
2024-03-12T04:20:59.050Z,94490.00
2024-03-12T04:21:59.074Z,94490.00
2024-03-12T04:22:59.140Z,94491.00
2024-03-12T04:23:59.175Z,94495.00
2024-03-12T04:24:59.285Z,94492.00
2024-03-12T04:25:59.275Z,94495.00
2024-03-12T04:26:59.327Z,94494.00
2024-03-12T04:27:59.384Z,94498.00
2024-03-12T04:28:59.374Z,94498.00
2024-03-12T04:29:59.424Z,94502.00
2024-03-12T04:30:59.516Z,94504.00
2024-03-12T04:31:59.527Z,94503.00
2024-03-12T04:32:59.546Z,94505.00
2024-03-12T04:33:59.678Z,94505.00
2024-03-12T04:34:59.628Z,94504.00
2024-03-12T04:35:59.754Z,94501.00
2024-03-12T04:36:59.810Z,94502.00
2024-03-12T04:37:59.750Z,94504.00
2024-03-12T04:38:59.753Z,94507.00
2024-03-12T04:39:59.828Z,94506.00
2024-03-12T04:40:59.831Z,94509.00
2024-03-12T04:42:07.130Z,94509.00
2024-03-12T04:43:07.127Z,94511.00
2024-03-12T04:44:07.102Z,94514.00
2024-03-12T04:45:07.102Z,94519.00
2024-03-12T04:46:07.174Z,94523.00
2024-03-12T04:47:07.140Z,94525.00
2024-03-12T04:48:07.155Z,94528.00
2024-03-12T04:49:07.173Z,94529.00
2024-03-12T04:50:07.095Z,94529.00
2024-03-12T04:51:07.144Z,94530.00
2024-03-12T04:52:07.185Z,94531.00
2024-03-12T04:53:07.222Z,94531.00
2024-03-12T04:54:07.172Z,94535.00
2024-03-12T04:55:07.216Z,94535.00
2024-03-12T04:56:07.141Z,94538.00
2024-03-12T04:57:07.111Z,94539.00
2024-03-12T04:58:07.205Z,94542.00
2024-03-12T04:59:07.125Z,94543.00
2024-03-12T05:00:07.168Z,94544.00
2024-03-12T05:01:07.502Z,94549.00
2024-03-12T05:02:07.161Z,94554.00
2024-03-12T05:03:07.141Z,94558.00
2024-03-12T05:04:15.113Z,94560.00
2024-03-12T05:05:08.143Z,94561.00
2024-03-12T05:06:07.147Z,94561.00
2024-03-12T05:07:07.231Z,94563.00
2024-03-12T05:08:07.123Z,94564.00
2024-03-12T05:09:07.153Z,94562.00
2024-03-12T05:10:07.172Z,94564.00
2024-03-12T05:11:07.357Z,94561.00
2024-03-12T05:12:07.166Z,94560.00
2024-03-12T05:13:07.342Z,94565.00
2024-03-12T05:14:07.214Z,94566.00
2024-03-12T05:15:07.174Z,94568.00
2024-03-12T05:16:07.225Z,94572.00
2024-03-12T05:17:07.182Z,94573.00
2024-03-12T05:18:07.235Z,94572.00
2024-03-12T05:19:07.265Z,94571.00
2024-03-12T05:20:07.168Z,94574.00
2024-03-12T05:21:07.182Z,94574.00
2024-03-12T05:22:07.225Z,94577.00
2024-03-12T05:23:07.158Z,94578.00
2024-03-12T05:24:07.174Z,94580.00
2024-03-12T05:25:07.279Z,94580.00
2024-03-12T05:26:07.164Z,94580.00
2024-03-12T05:27:07.216Z,94578.00
2024-03-12T05:28:07.311Z,94581.00
2024-03-12T05:29:07.822Z,94577.00
2024-03-12T05:30:07.282Z,94578.00
2024-03-12T05:31:07.440Z,94580.00
2024-03-12T05:32:07.357Z,94582.00
2024-03-12T05:33:07.394Z,94583.00
2024-03-12T05:34:07.514Z,94584.00
2024-03-12T05:35:07.430Z,94582.00
2024-03-12T05:36:07.499Z,94580.00
2024-03-12T05:37:07.530Z,94583.00
2024-03-12T05:38:07.475Z,94581.00
2024-03-12T05:39:07.609Z,94585.00
2024-03-12T05:40:07.586Z,94590.00
2024-03-12T05:41:07.566Z,94594.00
2024-03-12T05:42:07.643Z,94593.00
2024-03-12T05:43:07.678Z,94597.00
2024-03-12T05:44:07.650Z,94597.00
2024-03-12T05:45:07.708Z,94599.00
2024-03-12T05:46:07.852Z,94602.00
2024-03-12T05:47:07.742Z,94599.00
2024-03-12T05:48:07.789Z,94601.00
2024-03-12T05:49:08.030Z,94602.00
2024-03-12T05:50:07.778Z,94601.00
2024-03-12T05:51:07.825Z,94603.00
2024-03-12T05:52:07.903Z,94605.00
2024-03-12T05:53:07.892Z,94601.00
2024-03-12T05:54:07.877Z,94599.00
2024-03-12T05:55:08.005Z,94601.00
2024-03-12T05:56:07.968Z,94603.00
2024-03-12T05:57:07.991Z,94605.00
2024-03-12T05:58:08.029Z,94608.00
2024-03-12T05:59:08.068Z,94608.00
2024-03-12T06:00:08.039Z,94608.00
2024-03-12T06:01:08.203Z,94610.00
2024-03-12T06:02:08.146Z,94609.00
2024-03-12T06:03:08.174Z,94605.00
2024-03-12T06:04:08.221Z,94605.00
2024-03-12T06:05:08.193Z,94605.00
2024-03-12T06:06:08.195Z,94609.00
2024-03-12T06:07:08.383Z,94612.00
2024-03-12T06:08:08.272Z,94615.00
2024-03-12T06:09:08.326Z,94617.00
2024-03-12T06:10:08.365Z,94617.00
2024-03-12T06:11:08.396Z,94617.00
2024-03-12T06:12:08.399Z,94618.00
2024-03-12T06:13:08.497Z,94619.00
2024-03-12T06:14:08.445Z,94617.00
2024-03-12T06:15:08.458Z,94618.00
2024-03-12T06:16:08.596Z,94621.00
2024-03-12T06:17:08.579Z,94621.00
2024-03-12T06:18:08.613Z,94624.00
2024-03-12T06:19:08.597Z,94624.00
2024-03-12T06:20:11.406Z,94629.00
2024-03-12T06:21:08.638Z,94628.00
2024-03-12T06:22:08.636Z,94632.00
2024-03-12T06:23:08.634Z,94633.00
2024-03-12T06:24:08.628Z,94632.00
2024-03-12T06:25:08.733Z,94631.00
2024-03-12T06:26:08.616Z,94634.00
2024-03-12T06:27:08.612Z,94632.00
2024-03-12T06:28:08.707Z,94632.00
2024-03-12T06:29:08.600Z,94632.00
2024-03-12T06:30:08.628Z,94630.00
2024-03-12T06:31:08.618Z,94636.00
2024-03-12T06:32:08.624Z,94638.00
2024-03-12T06:33:08.670Z,94641.00
2024-03-12T06:34:08.812Z,94642.00
2024-03-12T06:35:08.619Z,94642.00
2024-03-12T06:36:08.663Z,94644.00
2024-03-12T06:37:08.625Z,94646.00
2024-03-12T06:38:31.212Z,94649.00
2024-03-12T06:39:08.633Z,94653.00
2024-03-12T06:40:08.684Z,94658.00
2024-03-12T06:41:08.685Z,94659.00
2024-03-12T06:42:08.650Z,94658.00
2024-03-12T06:43:08.853Z,94659.00
2024-03-12T06:44:08.643Z,94658.00
2024-03-12T06:45:08.938Z,94660.00
2024-03-12T06:46:08.664Z,94667.00
2024-03-12T06:47:08.706Z,94665.00
2024-03-12T06:48:08.761Z,94684.00
2024-03-12T06:49:08.767Z,94663.00
2024-03-12T06:50:09.209Z,94679.00
2024-03-12T06:51:09.850Z,94674.00
2024-03-12T06:52:08.931Z,94686.00
2024-03-12T06:53:09.457Z,94685.00
2024-03-12T06:54:09.466Z,94676.00
2024-03-12T06:55:09.336Z,94679.00
2024-03-12T06:56:08.891Z,94681.00
2024-03-12T06:57:08.644Z,94681.00
2024-03-12T06:58:08.742Z,94700.00
2024-03-12T06:59:08.853Z,94686.00
2024-03-12T07:00:08.678Z,94692.00
2024-03-12T07:01:08.739Z,94694.00
2024-03-12T07:02:08.767Z,94697.00
2024-03-12T07:03:08.888Z,94700.00
2024-03-12T07:04:08.754Z,94693.00
2024-03-12T07:05:08.788Z,94697.00
2024-03-12T07:06:08.763Z,94697.00
2024-03-12T07:07:11.461Z,94701.00
2024-03-12T07:08:08.721Z,94703.00
2024-03-12T07:09:10.084Z,94701.00
2024-03-12T07:10:09.315Z,94703.00
2024-03-12T07:11:09.004Z,94705.00
2024-03-12T07:12:09.985Z,94711.00
2024-03-12T07:13:09.894Z,94710.00
2024-03-12T07:14:09.353Z,94710.00
2024-03-12T07:15:09.127Z,94709.00
2024-03-12T07:16:09.227Z,94708.00
2024-03-12T07:17:09.303Z,94707.00
2024-03-12T07:18:09.565Z,94707.00
2024-03-12T07:19:09.462Z,94707.00
2024-03-12T07:20:10.326Z,94707.00
2024-03-12T07:21:12.720Z,94710.00
2024-03-12T07:22:09.579Z,94712.00
2024-03-12T07:23:09.456Z,94712.00
2024-03-12T07:24:09.462Z,94714.00
2024-03-12T07:25:09.509Z,94714.00
2024-03-12T07:26:09.846Z,94715.00
2024-03-12T07:27:09.480Z,94714.00
2024-03-12T07:28:09.599Z,94717.00
2024-03-12T07:29:09.523Z,94713.00
2024-03-12T07:30:09.548Z,94713.00
2024-03-12T07:31:09.544Z,94714.00
2024-03-12T07:32:09.563Z,94713.00
2024-03-12T07:33:09.520Z,94715.00
2024-03-12T07:34:09.633Z,94714.00
2024-03-12T07:35:09.958Z,94716.00
2024-03-12T07:36:09.497Z,94716.00
2024-03-12T07:37:10.014Z,94719.00
2024-03-12T07:38:09.528Z,94716.00
2024-03-12T07:39:09.513Z,94717.00
2024-03-12T07:40:09.947Z,94724.00
2024-03-12T07:41:10.570Z,94723.00
2024-03-12T07:42:11.559Z,94725.00
2024-03-12T07:43:09.600Z,94724.00
2024-03-12T07:44:09.520Z,94727.00
2024-03-12T07:45:09.582Z,94725.00
2024-03-12T07:46:09.553Z,94724.00
2024-03-12T07:47:09.521Z,94730.00
2024-03-12T07:48:12.459Z,94728.00
2024-03-12T07:49:11.239Z,94729.00
2024-03-12T07:50:09.568Z,94729.00
2024-03-12T07:51:09.482Z,94731.00
2024-03-12T07:52:09.630Z,94731.00
2024-03-12T07:53:09.522Z,94732.00
2024-03-12T07:54:09.845Z,94732.00
2024-03-12T07:55:10.506Z,94732.00
2024-03-12T07:56:09.477Z,94739.00
2024-03-12T07:57:09.527Z,94737.00
2024-03-12T07:58:09.557Z,94740.00
2024-03-12T07:59:09.917Z,94742.00
2024-03-12T08:00:09.511Z,94741.00
2024-03-12T08:01:09.593Z,94742.00
2024-03-12T08:02:09.549Z,94742.00
2024-03-12T08:03:09.624Z,94743.00
2024-03-12T08:04:10.061Z,94745.00
2024-03-12T08:05:09.500Z,94744.00
2024-03-12T08:06:09.549Z,94746.00
2024-03-12T08:07:09.538Z,94740.00
2024-03-12T08:08:09.618Z,94751.00
2024-03-12T08:09:09.564Z,94743.00
2024-03-12T08:10:10.506Z,94744.00
2024-03-12T08:11:09.681Z,94744.00
2024-03-12T08:12:10.052Z,94743.00
2024-03-12T08:13:10.025Z,94743.00
2024-03-12T08:14:09.577Z,94753.00
2024-03-12T08:15:10.793Z,94754.00
2024-03-12T08:16:09.633Z,94755.00
2024-03-12T08:17:09.566Z,94759.00
2024-03-12T08:18:17.186Z,94760.00
2024-03-12T08:19:10.598Z,94758.00
2024-03-12T08:20:09.543Z,94758.00
2024-03-12T08:21:12.395Z,94759.00
2024-03-12T08:22:11.500Z,94758.00
2024-03-12T08:23:11.420Z,94760.00
2024-03-12T08:24:09.615Z,94765.00
2024-03-12T08:25:09.657Z,94765.00
2024-03-12T08:26:09.589Z,94770.00
2024-03-12T08:27:09.540Z,94770.00
2024-03-12T08:28:24.444Z,94769.00
2024-03-12T08:29:09.648Z,94768.00
2024-03-12T08:30:09.549Z,94770.00
2024-03-12T08:31:18.699Z,94770.00
2024-03-12T08:32:10.644Z,94766.00
2024-03-12T08:33:10.526Z,94764.00
2024-03-12T08:34:10.495Z,94763.00
2024-03-12T08:35:09.710Z,94764.00
2024-03-12T08:36:09.919Z,94766.00
2024-03-12T08:37:09.648Z,94765.00
2024-03-12T08:38:10.815Z,94791.00
2024-03-12T08:39:10.069Z,94786.00
2024-03-12T08:40:09.704Z,94787.00
2024-03-12T08:41:10.003Z,94788.00
2024-03-12T08:42:09.760Z,94786.00
2024-03-12T08:43:09.655Z,94785.00
2024-03-12T08:44:09.568Z,94783.00
2024-03-12T08:45:09.726Z,94784.00
2024-03-12T08:46:10.131Z,94784.00
2024-03-12T08:47:09.598Z,94782.00
2024-03-12T08:48:10.879Z,94781.00
2024-03-12T08:49:10.013Z,94780.00
2024-03-12T08:50:09.794Z,94777.00
2024-03-12T08:51:10.888Z,94776.00
2024-03-12T08:52:10.704Z,94777.00
2024-03-12T08:53:15.968Z,94781.00
2024-03-12T08:54:10.470Z,94783.00
2024-03-12T08:55:15.517Z,94784.00
2024-03-12T08:56:11.539Z,94785.00
2024-03-12T08:57:09.753Z,94786.00
2024-03-12T08:58:11.442Z,94786.00
2024-03-12T08:59:09.994Z,94785.00
2024-03-12T09:00:09.772Z,94783.00
2024-03-12T09:01:09.904Z,94784.00
2024-03-12T09:02:09.828Z,94786.00
2024-03-12T09:03:09.800Z,94786.00
2024-03-12T09:04:11.641Z,94788.00
2024-03-12T09:05:09.844Z,94787.00
2024-03-12T09:06:09.830Z,94791.00
2024-03-12T09:07:10.471Z,94789.00
2024-03-12T09:08:09.933Z,94785.00
2024-03-12T09:09:21.036Z,94788.00
2024-03-12T09:10:10.531Z,94787.00
2024-03-12T09:11:11.956Z,94789.00
2024-03-12T09:12:09.966Z,94779.00
2024-03-12T09:13:10.032Z,94774.00
2024-03-12T09:14:10.187Z,94778.00
2024-03-12T09:15:10.834Z,94777.00
2024-03-12T09:16:10.047Z,94779.00
2024-03-12T09:17:09.916Z,94779.00
2024-03-12T09:18:09.960Z,94777.00
2024-03-12T09:19:10.097Z,94778.00
2024-03-12T09:20:09.904Z,94775.00
2024-03-12T09:21:09.947Z,94778.00
2024-03-12T09:22:10.029Z,94776.00
2024-03-12T09:23:10.277Z,94781.00
2024-03-12T09:24:09.971Z,94777.00
2024-03-12T09:25:11.164Z,94778.00
2024-03-12T09:26:09.990Z,94777.00
2024-03-12T09:27:10.070Z,94780.00
2024-03-12T09:28:10.577Z,94779.00
2024-03-12T09:29:10.089Z,94779.00
2024-03-12T09:30:10.095Z,94777.00
2024-03-12T09:31:10.365Z,94772.00
2024-03-12T09:32:10.959Z,94772.00
2024-03-12T09:33:10.256Z,94775.00
2024-03-12T09:34:10.275Z,94773.00
2024-03-12T09:35:10.311Z,94768.00
2024-03-12T09:36:10.346Z,94768.00
2024-03-12T09:37:12.020Z,94768.00
2024-03-12T09:38:10.727Z,94771.00
2024-03-12T09:39:10.538Z,94768.00
2024-03-12T09:40:10.687Z,94768.00
2024-03-12T09:41:10.565Z,94770.00
2024-03-12T09:42:10.537Z,94769.00
2024-03-12T09:43:11.945Z,94767.00
2024-03-12T09:44:10.656Z,94767.00
2024-03-12T09:45:11.528Z,94772.00
2024-03-12T09:46:11.085Z,94765.00
2024-03-12T09:47:17.450Z,94769.00
2024-03-12T09:48:10.898Z,94768.00
2024-03-12T09:49:17.493Z,94768.00
2024-03-12T09:50:10.761Z,94767.00
2024-03-12T09:51:10.952Z,94770.00
2024-03-12T09:52:13.461Z,94767.00
2024-03-12T09:53:10.846Z,94769.00
2024-03-12T09:54:10.855Z,94769.00
2024-03-12T09:55:11.106Z,94769.00
2024-03-12T09:56:11.046Z,94767.00
2024-03-12T09:57:13.045Z,94765.00
2024-03-12T09:58:10.997Z,94763.00
2024-03-12T09:59:10.833Z,94764.00
2024-03-12T10:00:12.433Z,94759.00
2024-03-12T10:01:11.589Z,94760.00
2024-03-12T10:02:11.000Z,94760.00
2024-03-12T10:03:11.052Z,94759.00
2024-03-12T10:04:11.158Z,94762.00
2024-03-12T10:05:11.522Z,94762.00
2024-03-12T10:06:11.234Z,94760.00
2024-03-12T10:07:11.256Z,94758.00
2024-03-12T10:08:11.233Z,94759.00
2024-03-12T10:09:14.234Z,94762.00
2024-03-12T10:10:11.556Z,94760.00
2024-03-12T10:11:11.350Z,94763.00
2024-03-12T10:12:11.304Z,94765.00
2024-03-12T10:13:11.394Z,94764.00
2024-03-12T10:14:11.963Z,94763.00
2024-03-12T10:15:11.615Z,94761.00
2024-03-12T10:16:11.285Z,94766.00
2024-03-12T10:17:11.310Z,94762.00
2024-03-12T10:18:11.391Z,94761.00
2024-03-12T10:19:11.476Z,94762.00
2024-03-12T10:20:12.157Z,94754.00
2024-03-12T10:21:12.183Z,94756.00
2024-03-12T10:22:13.373Z,94752.00
2024-03-12T10:23:11.349Z,94754.00
2024-03-12T10:24:11.478Z,94750.00
2024-03-12T10:25:11.753Z,94751.00
2024-03-12T10:26:11.479Z,94751.00
2024-03-12T10:27:11.502Z,94752.00
2024-03-12T10:28:11.341Z,94753.00
2024-03-12T10:29:11.483Z,94748.00
2024-03-12T10:30:11.276Z,94752.00
2024-03-12T10:31:12.379Z,94752.00
2024-03-12T10:32:11.310Z,94752.00
2024-03-12T10:33:11.469Z,94749.00
2024-03-12T10:34:11.533Z,94745.00
2024-03-12T10:35:11.437Z,94744.00
2024-03-12T10:36:17.927Z,94745.00
2024-03-12T10:37:13.022Z,94743.00
2024-03-12T10:38:11.465Z,94742.00
2024-03-12T10:39:11.438Z,94739.00
2024-03-12T10:40:12.077Z,94739.00
2024-03-12T10:41:11.398Z,94739.00
2024-03-12T10:42:11.433Z,94739.00
2024-03-12T10:43:11.421Z,94741.00
2024-03-12T10:44:11.627Z,94742.00
2024-03-12T10:45:11.485Z,94743.00
2024-03-12T10:46:11.521Z,94746.00
2024-03-12T10:47:11.423Z,94745.00
2024-03-12T10:48:11.483Z,94745.00
2024-03-12T10:49:11.521Z,94743.00
2024-03-12T10:50:11.510Z,94743.00
2024-03-12T10:51:11.494Z,94745.00
2024-03-12T10:52:12.131Z,94743.00
2024-03-12T10:53:11.981Z,94742.00
2024-03-12T10:54:11.409Z,94744.00
2024-03-12T10:55:12.110Z,94742.00
2024-03-12T10:56:14.961Z,94745.00
2024-03-12T10:57:11.485Z,94745.00
2024-03-12T10:58:11.522Z,94748.00
2024-03-12T10:59:11.544Z,94744.00
2024-03-12T11:00:11.437Z,94745.00
2024-03-12T11:01:11.654Z,94747.00
2024-03-12T11:02:11.429Z,94744.00
2024-03-12T11:03:11.430Z,94745.00
2024-03-12T11:04:11.631Z,94748.00
2024-03-12T11:05:11.467Z,94748.00
2024-03-12T11:06:11.859Z,94747.00
2024-03-12T11:07:11.531Z,94747.00
2024-03-12T11:08:11.615Z,94747.00
2024-03-12T11:09:11.590Z,94746.00
2024-03-12T11:10:11.643Z,94746.00
2024-03-12T11:11:11.529Z,94749.00
2024-03-12T11:12:11.452Z,94747.00
2024-03-12T11:13:11.546Z,94746.00
2024-03-12T11:14:13.005Z,94748.00
2024-03-12T11:15:12.512Z,94747.00
2024-03-12T11:16:13.597Z,94745.00
2024-03-12T11:17:11.646Z,94746.00
2024-03-12T11:18:11.820Z,94744.00
2024-03-12T11:19:12.618Z,94744.00
2024-03-12T11:20:11.870Z,94744.00
2024-03-12T11:21:11.863Z,94744.00
2024-03-12T11:22:12.095Z,94744.00
2024-03-12T11:23:12.035Z,94743.00
2024-03-12T11:24:14.047Z,94743.00
2024-03-12T11:25:12.172Z,94741.00
2024-03-12T11:26:12.320Z,94741.00
2024-03-12T11:27:12.253Z,94741.00
2024-03-12T11:28:12.366Z,94742.00
2024-03-12T11:29:12.345Z,94741.00
2024-03-12T11:30:13.172Z,94738.00
2024-03-12T11:31:12.622Z,94739.00
2024-03-12T11:32:13.534Z,94740.00
2024-03-12T11:33:12.588Z,94741.00
2024-03-12T11:34:12.785Z,94742.00
2024-03-12T11:35:13.480Z,94742.00
2024-03-12T11:36:12.792Z,94742.00
2024-03-12T11:37:12.919Z,94744.00
2024-03-12T11:38:17.299Z,94743.00
2024-03-12T11:39:13.283Z,94742.00
2024-03-12T11:40:12.958Z,94741.00
2024-03-12T11:41:12.921Z,94743.00
2024-03-12T11:42:17.540Z,94740.00
2024-03-12T11:43:13.197Z,94741.00
2024-03-12T11:44:12.970Z,94740.00
2024-03-12T11:45:12.920Z,94736.00
2024-03-12T11:46:13.098Z,94735.00